Time;durP1;ratioP1;P1;durP2;ratioP2;P2;SDS_P1;SDS_P2;PMS_P1;PMS_P2;Temp;Humidity;BMP_temperature;BMP_pressure;BME280_temperature;BME280_humidity;BME280_pressure;Samples;Min_cycle;Max_cycle;Signal;HPM_P1;HPM_P2
2022/05/25 00:00:07;;;;;;;11.82;10.05;;;22.20;72.90;;;;;;5054273;28;20071;-83
2022/05/25 00:02:33;;;;;;;13.30;10.88;;;22.40;72.90;;;;;;5054695;28;20025;-83
2022/05/25 00:04:58;;;;;;;16.23;11.80;;;22.80;71.20;;;;;;5072724;28;20484;-81
2022/05/25 00:07:24;;;;;;;13.75;9.32;;;23.20;70.20;;;;;;5072721;28;20041;-80
2022/05/25 00:09:51;;;;;;;10.93;8.63;;;23.40;69.10;;;;;;5054971;28;20025;-81
2022/05/25 00:12:17;;;;;;;11.75;8.68;;;23.60;68.40;;;;;;5055531;28;20032;-88
2022/05/25 00:14:44;;;;;;;10.38;8.85;;;23.70;67.50;;;;;;5055618;28;20029;-82
2022/05/25 00:17:09;;;;;;;13.52;9.40;;;23.70;67.00;;;;;;5073047;28;20028;-81
2022/05/25 00:22:19;;;;;;;11.82;9.07;;;23.80;66.60;;;;;;5073273;28;20055;-83
2022/05/25 00:24:45;;;;;;;14.15;9.52;;;23.80;66.50;;;;;;5054745;28;20339;-82
2022/05/25 00:27:11;;;;;;;12.82;9.38;;;23.90;66.30;;;;;;5055005;28;20048;-83
2022/05/25 00:29:37;;;;;;;11.38;9.23;;;23.80;67.10;;;;;;5073107;28;20528;-82
2022/05/25 00:32:04;;;;;;;12.75;10.60;;;23.70;67.00;;;;;;5056596;28;20016;-82
2022/05/25 00:34:30;;;;;;;15.18;11.23;;;23.80;67.40;;;;;;5055206;28;20059;-83
2022/05/25 00:36:56;;;;;;;15.30;11.98;;;23.60;68.20;;;;;;5055581;28;20028;-83
2022/05/25 00:39:23;;;;;;;14.77;9.98;;;23.70;68.00;;;;;;5055460;28;20398;-84
2022/05/25 00:41:50;;;;;;;13.60;10.60;;;23.80;67.50;;;;;;5055157;28;20119;-83
2022/05/25 00:44:16;;;;;;;11.07;9.20;;;23.80;68.00;;;;;;5055475;28;20074;-93
2022/05/25 00:46:42;;;;;;;12.35;8.40;;;23.60;68.50;;;;;;5055789;28;20086;-86
2022/05/25 00:49:22;;;;;;;16.90;11.93;;;22.80;69.70;;;;;;5072873;28;20021;-88
2022/05/25 00:51:53;;;;;;;15.13;11.50;;;22.20;72.70;;;;;;5055566;28;20360;-90
2022/05/25 00:54:30;;;;;;;17.67;12.38;;;22.50;71.30;;;;;;5072736;28;20020;-85
2022/05/25 00:57:00;;;;;;;23.67;13.00;;;22.90;70.20;;;;;;5072183;28;20059;-86
2022/05/25 00:59:29;;;;;;;17.08;13.00;;;22.90;69.80;;;;;;5054274;28;20131;-88
2022/05/25 01:01:56;;;;;;;15.65;11.55;;;23.10;69.60;;;;;;5072763;28;20024;-94
2022/05/25 01:04:22;;;;;;;14.30;10.25;;;23.10;69.10;;;;;;5060497;28;20082;-91
2022/05/25 01:07:13;;;;;;;13.18;10.85;;;22.80;71.30;;;;;;5058671;28;20029;-92
2022/05/25 01:09:45;;;;;;;18.23;14.18;;;22.30;72.30;;;;;;5059412;28;20032;-94
2022/05/25 01:12:52;;;;;;;19.55;13.52;;;22.10;73.80;;;;;;5059944;28;20510;-88
2022/05/25 01:15:24;;;;;;;17.67;10.98;;;22.50;72.10;;;;;;5040792;28;20127;-88
2022/05/25 01:18:08;;;;;;;18.25;13.15;;;22.40;72.40;;;;;;5076190;28;20017;-89
2022/05/25 01:21:08;;;;;;;17.15;13.07;;;22.50;72.20;;;;;;5075785;28;20361;-86
2022/05/25 01:24:03;;;;;;;18.05;12.63;;;22.80;71.10;;;;;;4974963;28;20078;-83
2022/05/25 01:26:51;;;;;;;14.35;11.07;;;22.90;70.50;;;;;;4958338;28;20027;-83
2022/05/25 01:29:39;;;;;;;19.15;13.35;;;22.40;71.80;;;;;;4975181;28;20467;-84
2022/05/25 01:32:46;;;;;;;18.80;13.60;;;21.40;76.10;;;;;;4958957;28;20027;-92
2022/05/25 01:35:28;;;;;;;17.33;13.80;;;21.80;74.30;;;;;;4968980;28;20039;-88
2022/05/25 01:38:11;;;;;;;17.67;13.30;;;22.40;72.30;;;;;;4974946;28;20058;-90
2022/05/25 01:40:45;;;;;;;18.67;14.32;;;22.70;71.20;;;;;;4976559;28;20089;-94
2022/05/25 01:43:22;;;;;;;20.38;14.90;;;23.10;70.30;;;;;;4976727;28;20488;-95
2022/05/25 01:45:54;;;;;;;14.90;11.70;;;23.20;69.50;;;;;;4959629;28;20110;-86
2022/05/25 01:48:22;;;;;;;15.50;13.13;;;22.80;70.70;;;;;;4958877;28;20054;-90
2022/05/25 01:50:53;;;;;;;22.83;16.73;;;21.90;74.40;;;;;;4958788;28;20023;-84
2022/05/25 01:53:23;;;;;;;21.70;15.20;;;22.20;74.10;;;;;;4974820;28;20085;-87
2022/05/25 01:55:53;;;;;;;17.98;14.95;;;22.60;72.80;;;;;;4958466;28;20031;-89
2022/05/25 01:58:21;;;;;;;28.65;17.73;;;23.00;70.90;;;;;;4975002;28;20030;-82
2022/05/25 02:00:56;;;;;;;15.18;11.85;;;23.30;70.40;;;;;;5042056;28;20032;-86
2022/05/25 02:06:34;;;;;;;17.52;14.05;;;22.10;74.80;;;;;;5075239;28;20090;-87
2022/05/25 02:09:29;;;;;;;16.52;13.63;;;22.60;72.70;;;;;;5075160;28;20052;-86
2022/05/25 02:12:17;;;;;;;15.95;13.13;;;23.00;70.90;;;;;;5074778;28;20032;-87
2022/05/25 02:15:06;;;;;;;13.18;11.25;;;23.20;70.10;;;;;;4974213;28;20055;-85
2022/05/25 02:17:45;;;;;;;17.42;12.85;;;22.60;72.40;;;;;;4952872;28;20042;-84
2022/05/25 02:20:33;;;;;;;17.92;13.60;;;22.80;71.50;;;;;;4974400;28;20174;-87
2022/05/25 02:23:18;;;;;;;16.25;13.50;;;23.10;70.30;;;;;;4974596;28;20115;-83
2022/05/25 02:25:52;;;;;;;12.20;10.90;;;23.40;69.40;;;;;;4957767;28;20062;-87
2022/05/25 02:28:27;;;;;;;12.13;10.27;;;22.70;71.10;;;;;;4973902;28;20031;-86
2022/05/25 02:30:57;;;;;;;11.90;10.25;;;22.10;73.50;;;;;;4958169;28;20030;-86
2022/05/25 02:33:30;;;;;;;15.63;13.23;;;22.00;74.50;;;;;;4974222;28;20038;-85
2022/05/25 02:35:58;;;;;;;16.67;13.65;;;22.30;73.90;;;;;;4974093;28;20193;-85
2022/05/25 02:38:25;;;;;;;12.07;10.43;;;22.80;72.40;;;;;;4973796;28;20046;-85
2022/05/25 02:41:01;;;;;;;12.13;10.70;;;22.90;71.40;;;;;;4973826;28;20596;-86
2022/05/25 02:43:26;;;;;;;15.02;12.38;;;22.60;72.50;;;;;;4974170;28;20067;-85
2022/05/25 02:45:52;;;;;;;11.57;10.30;;;22.90;71.60;;;;;;4957654;28;20065;-91
2022/05/25 02:48:18;;;;;;;11.57;8.88;;;22.90;70.80;;;;;;4973905;28;20023;-90
2022/05/25 02:50:44;;;;;;;9.30;8.30;;;22.50;70.50;;;;;;4967494;28;20026;-85
2022/05/25 02:53:11;;;;;;;9.57;8.57;;;21.30;74.30;;;;;;5057117;28;20028;-85
2022/05/25 02:55:38;;;;;;;11.48;10.00;;;20.60;77.40;;;;;;5056511;28;20428;-84
2022/05/25 02:58:04;;;;;;;12.88;10.55;;;20.90;77.30;;;;;;5073777;28;20364;-83
2022/05/25 03:00:30;;;;;;;13.20;11.63;;;21.80;74.20;;;;;;5055862;28;20075;-84
2022/05/25 03:02:56;;;;;;;15.50;13.20;;;22.40;71.90;;;;;;5056116;28;20115;-85
2022/05/25 03:05:23;;;;;;;14.15;11.95;;;22.90;70.50;;;;;;5056041;28;20044;-83
2022/05/25 03:07:49;;;;;;;15.10;12.45;;;23.30;69.30;;;;;;5055792;28;20416;-83
2022/05/25 03:10:15;;;;;;;13.68;11.57;;;23.60;68.90;;;;;;5055874;28;20463;-84
2022/05/25 03:12:41;;;;;;;12.32;10.65;;;23.80;67.90;;;;;;5056004;28;20020;-88
2022/05/25 03:15:07;;;;;;;14.48;12.68;;;23.70;67.90;;;;;;5073967;28;20035;-83
2022/05/25 03:17:33;;;;;;;16.42;12.05;;;23.70;67.90;;;;;;5055738;28;20550;-83
2022/05/25 03:19:59;;;;;;;13.88;11.80;;;23.80;67.70;;;;;;5055921;28;20483;-82
2022/05/25 03:22:25;;;;;;;12.70;11.40;;;24.00;67.00;;;;;;5056049;28;20364;-83
2022/05/25 03:24:52;;;;;;;13.32;11.45;;;24.10;66.90;;;;;;5055703;28;20024;-83
2022/05/25 03:27:17;;;;;;;12.80;11.23;;;24.10;66.90;;;;;;5055929;28;20024;-86
2022/05/25 03:29:43;;;;;;;11.27;9.57;;;23.60;69.40;;;;;;5055434;28;20455;-84
2022/05/25 03:32:10;;;;;;;12.95;11.55;;;23.30;69.50;;;;;;5073351;28;20032;-84
2022/05/25 03:34:36;;;;;;;13.40;12.00;;;23.20;70.40;;;;;;5073757;28;20109;-85
2022/05/25 03:37:02;;;;;;;13.57;11.52;;;23.40;69.50;;;;;;5055759;28;20467;-86
2022/05/25 03:39:28;;;;;;;15.77;12.77;;;23.60;69.30;;;;;;5055480;28;20048;-86
2022/05/25 03:42:00;;;;;;;15.55;13.93;;;23.80;68.30;;;;;;5055970;28;20482;-84
2022/05/25 03:44:26;;;;;;;10.25;9.25;;;23.80;68.30;;;;;;5055868;28;20028;-84
2022/05/25 03:46:52;;;;;;;11.10;9.70;;;23.90;67.70;;;;;;5073643;28;20025;-84
2022/05/25 03:49:19;;;;;;;13.65;11.18;;;23.90;67.70;;;;;;5055675;28;20024;-83
2022/05/25 03:51:45;;;;;;;12.45;10.40;;;23.90;67.50;;;;;;5056354;28;20029;-84
2022/05/25 03:54:11;;;;;;;14.50;11.65;;;24.00;67.10;;;;;;5056166;28;20028;-83
2022/05/25 03:56:37;;;;;;;10.02;9.02;;;24.10;66.70;;;;;;5055361;28;20058;-84
2022/05/25 03:59:03;;;;;;;14.98;12.05;;;23.90;67.10;;;;;;5073535;28;20040;-84
2022/05/25 04:01:30;;;;;;;15.27;12.98;;;23.20;69.50;;;;;;5055947;28;20463;-85
2022/05/25 04:03:56;;;;;;;14.57;11.68;;;23.30;69.60;;;;;;5055554;28;20025;-85
2022/05/25 04:06:21;;;;;;;13.80;11.73;;;23.70;68.50;;;;;;5055573;28;20028;-85
2022/05/25 04:08:47;;;;;;;12.07;10.75;;;23.90;67.60;;;;;;5055843;28;20036;-85
2022/05/25 04:11:13;;;;;;;13.13;11.73;;;24.10;67.40;;;;;;5055681;28;20243;-84
2022/05/25 04:13:39;;;;;;;14.90;11.75;;;24.20;66.60;;;;;;5055620;28;20048;-85
2022/05/25 04:16:04;;;;;;;14.18;11.32;;;24.20;67.00;;;;;;5055566;28;20084;-86
2022/05/25 04:18:30;;;;;;;13.43;12.02;;;24.40;66.50;;;;;;5055347;28;20034;-86
2022/05/25 04:20:56;;;;;;;14.88;12.70;;;24.40;66.20;;;;;;5055395;28;20033;-85
2022/05/25 04:23:24;;;;;;;10.80;9.70;;;24.40;66.00;;;;;;5055433;28;20032;-88
2022/05/25 04:25:50;;;;;;;12.00;9.98;;;24.40;66.60;;;;;;5055372;28;20035;-87
2022/05/25 04:28:16;;;;;;;17.55;12.45;;;23.70;68.50;;;;;;5055437;28;20025;-86
2022/05/25 04:30:41;;;;;;;14.98;11.52;;;23.70;68.80;;;;;;5054959;28;20036;-82
2022/05/25 04:33:07;;;;;;;13.43;11.95;;;23.70;68.50;;;;;;5054880;28;20025;-88
2022/05/25 04:35:33;;;;;;;15.65;12.38;;;23.80;68.50;;;;;;5055069;28;20029;-81
2022/05/25 04:37:59;;;;;;;10.98;9.32;;;24.10;67.80;;;;;;5055991;28;20589;-80
2022/05/25 04:40:27;;;;;;;9.27;8.02;;;23.50;68.00;;;;;;5076311;28;20040;-85
2022/05/25 04:42:55;;;;;;;12.75;11.07;;;22.40;71.40;;;;;;5076241;28;20348;-80
2022/05/25 04:45:21;;;;;;;12.32;10.48;;;22.30;73.10;;;;;;5058947;28;20033;-81
2022/05/25 04:47:47;;;;;;;12.82;11.05;;;22.60;72.20;;;;;;5076525;28;20024;-86
2022/05/25 04:50:14;;;;;;;13.90;10.38;;;23.00;71.00;;;;;;5059892;28;20028;-82
2022/05/25 04:52:39;;;;;;;10.13;9.13;;;23.40;69.60;;;;;;5078093;28;20025;-80
2022/05/25 04:55:07;;;;;;;11.95;10.65;;;23.80;68.40;;;;;;5057757;28;20062;-94
2022/05/25 04:57:33;;;;;;;12.98;10.57;;;23.90;68.10;;;;;;5059160;28;20028;-86
2022/05/25 05:00:02;;;;;;;13.80;12.40;;;24.10;67.50;;;;;;5076060;28;20032;-83
2022/05/25 05:02:30;;;;;;;11.93;9.55;;;24.20;67.70;;;;;;5058411;28;20047;-85
2022/05/25 05:04:56;;;;;;;11.50;10.30;;;23.90;68.70;;;;;;5057339;28;20037;-79
2022/05/25 05:07:31;;;;;;;12.77;10.63;;;23.80;68.70;;;;;;5056421;28;20411;-83
2022/05/25 05:10:00;;;;;;;12.32;10.45;;;24.10;67.90;;;;;;5054370;28;20025;-81
2022/05/25 05:12:27;;;;;;;11.15;9.93;;;24.40;67.10;;;;;;5075499;28;20115;-82
2022/05/25 05:14:53;;;;;;;10.45;9.35;;;24.40;67.30;;;;;;5074973;28;20463;-80
2022/05/25 05:17:19;;;;;;;13.05;10.77;;;24.40;67.30;;;;;;5056538;28;20030;-79
2022/05/25 05:19:44;;;;;;;12.18;10.73;;;23.90;68.00;;;;;;5073739;28;20028;-81
2022/05/25 05:22:10;;;;;;;12.27;10.10;;;24.00;67.60;;;;;;5055370;28;20017;-81
2022/05/25 05:24:36;;;;;;;14.40;11.52;;;24.30;66.70;;;;;;5073611;28;20059;-77
2022/05/25 05:27:02;;;;;;;10.55;8.95;;;24.60;66.10;;;;;;5055219;28;20491;-79
2022/05/25 05:29:30;;;;;;;8.02;7.13;;;24.70;65.60;;;;;;5054434;28;20375;-80
2022/05/25 05:31:57;;;;;;;10.50;9.40;;;23.60;67.00;;;;;;5056845;28;20476;-78
2022/05/25 05:34:22;;;;;;;11.70;9.80;;;22.80;71.30;;;;;;5072910;28;20438;-78
2022/05/25 05:36:52;;;;;;;11.65;9.82;;;23.20;70.70;;;;;;5054347;28;20122;-79
2022/05/25 05:39:21;;;;;;;11.13;9.48;;;23.80;68.70;;;;;;5073534;28;20036;-81
2022/05/25 05:41:57;;;;;;;12.05;10.32;;;24.20;67.30;;;;;;5073628;28;20336;-84
2022/05/25 05:44:27;;;;;;;11.52;10.05;;;24.60;66.60;;;;;;5052457;28;20392;-82
2022/05/25 05:46:56;;;;;;;9.45;8.43;;;24.90;65.60;;;;;;5056411;28;20071;-79
2022/05/25 05:49:22;;;;;;;10.13;8.23;;;24.90;65.70;;;;;;5053601;28;20450;-79
2022/05/25 05:51:48;;;;;;;9.20;8.23;;;25.10;65.10;;;;;;5054062;28;20119;-77
2022/05/25 05:54:15;;;;;;;9.45;8.43;;;25.00;65.50;;;;;;5054972;28;20024;-79
2022/05/25 05:56:42;;;;;;;9.02;8.07;;;25.10;65.10;;;;;;5055751;28;20028;-79
2022/05/25 05:59:08;;;;;;;9.45;7.70;;;25.20;64.80;;;;;;5057377;28;20056;-82
2022/05/25 06:01:34;;;;;;;9.45;7.75;;;25.10;65.10;;;;;;5091345;28;20044;-85
2022/05/25 06:04:00;;;;;;;11.80;7.55;;;25.20;64.70;;;;;;5063303;28;20021;-81
2022/05/25 06:06:27;;;;;;;10.02;8.38;;;25.30;63.80;;;;;;5060769;28;20054;-84
2022/05/25 06:08:53;;;;;;;9.27;7.72;;;25.40;65.30;;;;;;5057855;28;20082;-86
2022/05/25 06:11:20;;;;;;;9.18;6.85;;;25.40;64.40;;;;;;5057555;28;20024;-78
2022/05/25 06:13:46;;;;;;;8.77;6.68;;;25.50;63.70;;;;;;5051786;28;20035;-92
2022/05/25 06:21:41;;;;;;;10.18;7.20;;;25.30;64.60;;;;;;5074025;28;20035;-81
2022/05/25 06:24:07;;;;;;;8.10;6.38;;;24.60;66.10;;;;;;5075130;28;20024;-85
2022/05/25 06:26:33;;;;;;;9.52;5.72;;;24.90;66.10;;;;;;5057336;28;20343;-82
2022/05/25 06:29:00;;;;;;;7.75;6.57;;;25.30;64.80;;;;;;5074476;28;20530;-81
2022/05/25 06:31:27;;;;;;;6.82;5.30;;;25.70;64.10;;;;;;5074639;28;20027;-82
2022/05/25 06:33:53;;;;;;;8.88;5.43;;;25.40;64.10;;;;;;5074128;28;20744;-79
2022/05/25 06:36:23;;;;;;;7.75;6.53;;;24.60;65.70;;;;;;5055456;28;20025;-82
2022/05/25 06:38:49;;;;;;;8.02;6.35;;;23.80;68.30;;;;;;5053704;28;20113;-79
2022/05/25 06:41:15;;;;;;;7.40;5.78;;;24.20;68.40;;;;;;5055986;28;20521;-80
2022/05/25 06:43:41;;;;;;;7.72;5.45;;;24.80;67.30;;;;;;5073219;28;20040;-84
2022/05/25 06:46:08;;;;;;;7.10;5.60;;;25.00;65.00;;;;;;5074109;28;20020;-90
2022/05/25 06:48:34;;;;;;;9.10;6.50;;;24.20;66.70;;;;;;5055245;28;20052;-88
2022/05/25 06:51:18;;;;;;;7.97;6.28;;;23.50;70.70;;;;;;5055114;28;20119;-79
2022/05/25 06:53:44;;;;;;;7.07;5.85;;;23.40;72.00;;;;;;5069379;28;20024;-84
2022/05/25 06:56:11;;;;;;;8.73;5.88;;;23.60;71.60;;;;;;5055714;28;20111;-90
2022/05/25 06:58:37;;;;;;;7.32;6.00;;;23.90;70.10;;;;;;5072801;28;20021;-89
2022/05/25 07:01:04;;;;;;;10.40;6.20;;;24.60;68.70;;;;;;5054265;28;20029;-76
2022/05/25 07:03:30;;;;;;;7.70;5.78;;;25.10;67.20;;;;;;5053937;28;20067;-85
2022/05/25 07:05:56;;;;;;;9.40;5.57;;;25.30;65.40;;;;;;5053611;28;20070;-74
2022/05/25 07:08:21;;;;;;;8.02;5.90;;;25.50;64.80;;;;;;5072472;28;20040;-75
2022/05/25 07:10:47;;;;;;;9.07;5.40;;;25.80;64.80;;;;;;5071830;28;20017;-80
2022/05/25 07:13:14;;;;;;;7.38;5.47;;;26.10;63.40;;;;;;5054377;28;20128;-79
2022/05/25 07:15:39;;;;;;;7.55;5.85;;;26.20;63.70;;;;;;5051002;28;20048;-75
2022/05/25 07:18:06;;;;;;;6.97;5.45;;;26.20;63.80;;;;;;5053020;28;20048;-75
2022/05/25 07:20:31;;;;;;;7.53;5.53;;;26.60;63.00;;;;;;5053826;28;20438;-84
2022/05/25 07:22:57;;;;;;;5.97;5.10;;;26.80;62.60;;;;;;5054876;28;20020;-85
2022/05/25 07:25:23;;;;;;;9.15;5.60;;;26.90;61.80;;;;;;5073047;28;20060;-77
2022/05/25 07:28:04;;;;;;;7.80;5.28;;;25.90;63.70;;;;;;4929998;28;10000424;-79
2022/05/25 07:30:30;;;;;;;7.15;5.20;;;26.00;63.90;;;;;;5047887;28;20744;-82
2022/05/25 07:32:57;;;;;;;6.38;4.85;;;26.20;62.30;;;;;;5051369;28;20028;-77
2022/05/25 07:35:23;;;;;;;6.22;5.40;;;26.60;62.70;;;;;;5050826;28;20114;-77
2022/05/25 07:37:52;;;;;;;7.40;5.32;;;27.10;61.40;;;;;;5070084;28;20418;-78
2022/05/25 07:40:28;;;;;;;7.75;5.72;;;26.30;60.80;;;;;;5068063;28;20036;-76
2022/05/25 07:42:58;;;;;;;9.07;5.72;;;26.30;63.60;;;;;;5050781;28;20029;-75
2022/05/25 07:45:24;;;;;;;6.82;5.30;;;26.00;64.30;;;;;;5068316;28;20497;-73
2022/05/25 07:47:53;;;;;;;7.70;5.68;;;26.10;62.70;;;;;;5072269;28;20482;-81
2022/05/25 07:50:23;;;;;;;6.75;5.75;;;26.10;63.80;;;;;;5050367;28;20024;-82
2022/05/25 07:52:52;;;;;;;8.35;5.18;;;25.80;63.90;;;;;;5054560;28;20032;-76
2022/05/25 07:55:18;;;;;;;8.43;5.90;;;26.30;64.20;;;;;;5067381;28;20403;-77
2022/05/25 07:57:44;;;;;;;7.30;5.68;;;26.70;63.20;;;;;;5071109;28;20025;-76
2022/05/25 08:00:11;;;;;;;7.30;5.45;;;27.00;62.70;;;;;;5070495;28;20063;-82
2022/05/25 08:05:47;;;;;;;7.93;5.88;;;26.70;62.00;;;;;;5066465;28;20039;-78
2022/05/25 08:08:22;;;;;;;8.05;5.60;;;27.10;62.90;;;;;;5072078;28;20022;-79
2022/05/25 08:10:55;;;;;;;7.28;5.90;;;27.60;61.20;;;;;;5072099;28;20051;-84
2022/05/25 08:13:22;;;;;;;8.00;5.88;;;26.60;62.70;;;;;;5038219;28;20462;-89
2022/05/25 08:15:48;;;;;;;8.93;5.95;;;26.60;62.60;;;;;;5037047;28;20017;-84
2022/05/25 08:18:19;;;;;;;8.23;6.15;;;26.90;62.20;;;;;;5037507;28;20083;-80
2022/05/25 08:20:46;;;;;;;8.23;6.18;;;27.00;61.50;;;;;;5056210;28;20068;-92
2022/05/25 08:23:15;;;;;;;7.15;6.00;;;27.20;62.60;;;;;;5037743;28;20028;-90
2022/05/25 08:25:42;;;;;;;7.30;6.00;;;26.80;63.80;;;;;;5038683;28;20115;-88
2022/05/25 08:28:08;;;;;;;7.55;5.63;;;27.10;63.80;;;;;;5039208;28;20021;-82
2022/05/25 08:30:36;;;;;;;7.90;5.72;;;27.20;61.50;;;;;;5040610;28;20028;-79
2022/05/25 08:33:01;;;;;;;9.60;6.88;;;27.00;62.60;;;;;;5039300;28;20493;-79
2022/05/25 08:35:27;;;;;;;8.95;6.30;;;26.60;65.10;;;;;;5039313;28;20850;-85
2022/05/25 08:37:54;;;;;;;8.23;6.20;;;26.60;63.90;;;;;;5039049;28;20475;-84
2022/05/25 08:40:21;;;;;;;9.23;6.50;;;27.20;63.90;;;;;;5038779;28;20041;-87
2022/05/25 08:43:23;;;;;;;9.80;6.00;;;27.70;63.00;;;;;;5040216;28;20005;-93
2022/05/25 08:45:52;;;;;;;8.95;6.35;;;28.40;61.10;;;;;;5038748;28;20017;-82
2022/05/25 08:48:21;;;;;;;6.87;6.23;;;28.60;61.00;;;;;;5038769;28;20025;-83
2022/05/25 08:50:52;;;;;;;8.23;5.97;;;28.80;61.30;;;;;;5039241;28;20125;-85
2022/05/25 08:53:23;;;;;;;9.85;6.43;;;29.00;59.40;;;;;;5039091;28;20021;-90
2022/05/25 08:56:19;;;;;;;8.63;6.43;;;29.20;58.20;;;;;;5038881;28;20033;-83
2022/05/25 08:59:04;;;;;;;8.55;6.75;;;28.90;60.80;;;;;;5038720;28;20383;-89
2022/05/25 09:01:47;;;;;;;7.78;6.03;;;28.50;60.70;;;;;;5038461;28;20032;-78
2022/05/25 09:04:27;;;;;;;10.52;6.70;;;28.30;59.80;;;;;;5039114;28;20023;-82
2022/05/25 09:07:07;;;;;;;11.05;6.90;;;28.50;60.30;;;;;;5039155;28;20079;-84
2022/05/25 09:09:43;;;;;;;8.15;6.18;;;28.70;59.00;;;;;;5038451;28;20067;-83
2022/05/25 09:12:53;;;;;;;8.88;6.47;;;28.70;59.50;;;;;;5038040;28;20025;-86
2022/05/25 09:15:25;;;;;;;8.52;6.63;;;28.80;58.60;;;;;;4958739;28;20027;-83
2022/05/25 09:18:00;;;;;;;9.63;7.18;;;28.90;58.20;;;;;;4975343;28;20154;-85
2022/05/25 09:20:36;;;;;;;7.35;6.60;;;29.10;58.10;;;;;;4959251;28;20035;-89
2022/05/25 09:23:03;;;;;;;9.68;6.57;;;29.20;58.80;;;;;;4958739;28;20541;-84
2022/05/25 09:25:30;;;;;;;9.23;6.60;;;29.20;59.00;;;;;;4959117;28;20030;-84
2022/05/25 09:28:07;;;;;;;10.55;6.68;;;29.10;59.70;;;;;;4975689;28;20473;-85
2022/05/25 09:30:37;;;;;;;8.20;6.88;;;29.20;58.90;;;;;;4958823;28;20478;-86
2022/05/25 09:33:15;;;;;;;8.87;6.90;;;29.40;58.80;;;;;;4959183;28;20035;-82
2022/05/25 09:36:08;;;;;;;7.97;7.07;;;29.70;58.10;;;;;;4974773;28;20066;-84
2022/05/25 09:38:42;;;;;;;9.57;6.72;;;29.90;57.90;;;;;;4974301;28;20485;-82
2022/05/25 09:41:12;;;;;;;8.82;7.10;;;30.00;58.00;;;;;;4958589;28;20046;-83
2022/05/25 09:43:39;;;;;;;9.13;6.80;;;29.90;58.00;;;;;;4959011;28;20121;-85
2022/05/25 09:46:37;;;;;;;13.02;7.05;;;30.00;56.50;;;;;;4958317;28;20122;-82
2022/05/25 09:49:11;;;;;;;8.63;6.85;;;30.20;57.70;;;;;;4317040;28;10000720;-83
2022/05/25 09:51:43;;;;;;;9.55;7.13;;;30.10;58.40;;;;;;5038058;28;20142;-79
2022/05/25 09:54:36;;;;;;;8.93;6.85;;;29.90;57.40;;;;;;5037306;28;20017;-85
2022/05/25 09:57:33;;;;;;;11.27;7.55;;;29.90;57.80;;;;;;5053633;28;20037;-78
2022/05/25 10:00:23;;;;;;;12.60;7.07;;;30.10;57.60;;;;;;5051540;28;20052;-84
2022/05/25 10:02:51;;;;;;;;;;;30.40;57.60;;;;;;5054941;28;20036;-80
2022/05/25 10:05:25;;;;;;;10.45;7.00;;;30.00;57.10;;;;;;5055500;28;19996;-83
2022/05/25 10:08:15;;;;;;;10.10;6.78;;;30.30;58.00;;;;;;5037450;28;20083;-78
2022/05/25 10:10:52;;;;;;;8.82;6.47;;;30.40;57.20;;;;;;5036536;28;20170;-80
2022/05/25 10:13:22;;;;;;;8.02;6.43;;;30.40;57.30;;;;;;5036903;28;20051;-81
2022/05/25 10:15:51;;;;;;;9.52;7.38;;;30.40;57.40;;;;;;5054643;28;20013;-85
2022/05/25 10:18:37;;;;;;;8.68;6.53;;;30.50;57.10;;;;;;5055392;28;20025;-83
2022/05/25 10:21:07;;;;;;;9.00;6.60;;;30.70;58.00;;;;;;5053380;28;20119;-83
2022/05/25 10:23:33;;;;;;;6.90;6.22;;;30.50;55.70;;;;;;5036632;28;20109;-80
2022/05/25 10:26:17;;;;;;;7.97;6.60;;;30.60;55.60;;;;;;5054544;28;20037;-83
2022/05/25 10:28:56;;;;;;;9.25;6.53;;;30.60;56.10;;;;;;5036285;28;20024;-80
2022/05/25 10:37:07;;;;;;;8.25;6.47;;;31.00;56.70;;;;;;5054644;28;20048;-83
2022/05/25 10:39:36;;;;;;;7.40;6.25;;;31.20;57.30;;;;;;5035878;28;20048;-81
2022/05/25 10:42:12;;;;;;;8.57;6.65;;;31.50;56.70;;;;;;5035891;28;20054;-81
2022/05/25 10:44:59;;;;;;;7.03;6.07;;;31.30;56.30;;;;;;5053773;28;20104;-83
2022/05/25 10:47:43;;;;;;;7.82;6.40;;;31.40;56.90;;;;;;5035876;28;20361;-80
2022/05/25 10:50:25;;;;;;;9.43;6.65;;;31.10;56.30;;;;;;5053504;28;20052;-80
2022/05/25 10:53:08;;;;;;;7.88;6.32;;;31.00;58.60;;;;;;5035730;28;20186;-79
2022/05/25 10:55:42;;;;;;;8.65;5.93;;;31.00;58.50;;;;;;5054027;28;20017;-85
2022/05/25 10:58:17;;;;;;;7.68;6.32;;;30.40;57.50;;;;;;5053702;28;20020;-84
2022/05/25 11:00:56;;;;;;;7.68;6.47;;;30.40;58.60;;;;;;5053745;28;20444;-83
2022/05/25 11:03:38;;;;;;;7.75;5.82;;;30.70;57.90;;;;;;5053550;28;20495;-80
2022/05/25 11:06:34;;;;;;;7.13;6.20;;;30.60;57.80;;;;;;5053241;28;20490;-81
2022/05/25 11:09:09;;;;;;;7.78;5.82;;;30.60;58.00;;;;;;5035599;28;20032;-81
2022/05/25 11:11:53;;;;;;;8.57;6.20;;;30.20;57.80;;;;;;5035879;28;20115;-78
2022/05/25 11:14:37;;;;;;;9.88;6.35;;;29.70;58.40;;;;;;5054456;28;20029;-80
2022/05/25 11:17:14;;;;;;;7.10;6.22;;;29.60;60.20;;;;;;5053283;28;20028;-80
2022/05/25 11:20:09;;;;;;;10.40;6.47;;;29.60;59.00;;;;;;5035020;28;20069;-81
2022/05/25 11:22:38;;;;;;;7.85;6.20;;;29.90;59.50;;;;;;5053354;28;20400;-83
2022/05/25 11:25:26;;;;;;;8.48;6.65;;;29.80;59.10;;;;;;5035832;28;20033;-83
2022/05/25 11:28:12;;;;;;;8.95;6.95;;;29.80;58.90;;;;;;5055601;28;20035;-78
2022/05/25 11:31:15;;;;;;;10.05;6.50;;;29.90;58.10;;;;;;5035610;28;20028;-85
2022/05/25 11:34:00;;;;;;;9.40;6.13;;;30.10;58.40;;;;;;5053341;28;20044;-86
2022/05/25 11:37:01;;;;;;;8.68;7.30;;;30.10;58.50;;;;;;5034932;28;20087;-80
2022/05/25 11:40:00;;;;;;;9.57;6.80;;;30.10;58.20;;;;;;5032577;28;20461;-82
2022/05/25 11:42:29;;;;;;;6.80;6.03;;;30.20;58.20;;;;;;5035333;28;20049;-83
2022/05/25 11:45:16;;;;;;;7.88;6.78;;;30.40;58.70;;;;;;5035049;28;20025;-82
2022/05/25 11:48:06;;;;;;;8.10;7.30;;;30.30;58.20;;;;;;5034549;28;20129;-82
2022/05/25 11:50:56;;;;;;;8.23;7.00;;;30.70;58.60;;;;;;5054149;28;20032;-80
2022/05/25 11:53:41;;;;;;;10.98;6.75;;;31.00;58.10;;;;;;5052878;28;20040;-79
2022/05/25 11:56:15;;;;;;;7.97;7.18;;;31.00;57.60;;;;;;5052855;28;20017;-81
2022/05/25 11:59:10;;;;;;;7.53;6.40;;;30.90;57.90;;;;;;5053210;28;20486;-85
2022/05/25 12:02:11;;;;;;;8.30;7.50;;;30.80;57.40;;;;;;5051318;28;20525;-79
2022/05/25 12:04:45;;;;;;;8.93;7.70;;;30.50;57.20;;;;;;4991811;28;20035;-83
2022/05/25 12:07:31;;;;;;;9.63;8.63;;;30.20;57.10;;;;;;4991546;28;20134;-86
2022/05/25 12:10:00;;;;;;;10.25;9.18;;;30.10;57.80;;;;;;4991206;28;20038;-79
2022/05/25 12:12:34;;;;;;;9.07;8.10;;;29.60;57.50;;;;;;4991560;28;20097;-81
2022/05/25 12:15:40;;;;;;;8.98;8.07;;;29.60;58.40;;;;;;4991463;28;20062;-83
2022/05/25 12:18:30;;;;;;;10.57;8.65;;;29.30;58.50;;;;;;4991798;28;20037;-81
2022/05/25 12:21:04;;;;;;;15.30;10.90;;;29.30;59.40;;;;;;4991439;28;20133;-78
2022/05/25 12:23:34;;;;;;;10.68;9.57;;;29.00;59.00;;;;;;4991670;28;20034;-82
2022/05/25 12:26:14;;;;;;;11.43;9.90;;;28.80;59.80;;;;;;4974641;28;20054;-78
2022/05/25 12:28:41;;;;;;;11.07;9.63;;;28.80;59.70;;;;;;4975030;28;20037;-84
2022/05/25 12:31:23;;;;;;;9.55;8.32;;;29.00;59.60;;;;;;4974651;28;20026;-85
2022/05/25 12:33:51;;;;;;;11.45;9.90;;;29.20;59.10;;;;;;4991503;28;20117;-82
2022/05/25 12:36:17;;;;;;;10.13;9.23;;;29.10;58.90;;;;;;4990758;28;20034;-82
2022/05/25 12:38:43;;;;;;;11.13;9.85;;;29.00;59.20;;;;;;4974598;28;20046;-78
2022/05/25 12:41:35;;;;;;;10.93;9.20;;;29.00;59.10;;;;;;5047265;28;20048;-83
2022/05/25 12:49:55;;;;;;;11.05;9.95;;;29.70;58.30;;;;;;5052530;28;20036;-79
2022/05/25 12:52:27;;;;;;;10.57;9.20;;;29.80;58.50;;;;;;5052536;28;20021;-86
2022/05/25 12:55:02;;;;;;;10.52;9.10;;;29.80;58.30;;;;;;5034708;28;20025;-80
2022/05/25 12:57:45;;;;;;;9.65;8.65;;;29.70;58.40;;;;;;5051053;28;20108;-79
2022/05/25 13:00:18;;;;;;;9.95;8.70;;;29.60;59.00;;;;;;5037974;28;20044;-82
2022/05/25 13:02:43;;;;;;;10.00;8.73;;;29.60;59.00;;;;;;5037739;28;20017;-81
2022/05/25 13:05:30;;;;;;;9.90;8.90;;;29.70;59.00;;;;;;5038229;28;20017;-86
2022/05/25 13:07:56;;;;;;;10.02;8.88;;;29.80;58.80;;;;;;5055641;28;20021;-80
2022/05/25 13:10:31;;;;;;;10.30;8.68;;;29.80;57.80;;;;;;5038114;28;20450;-79
2022/05/25 13:12:59;;;;;;;8.98;8.07;;;29.80;58.20;;;;;;5056144;28;20023;-88
2022/05/25 13:15:24;;;;;;;9.43;8.20;;;29.70;57.70;;;;;;5037721;28;20036;-84
2022/05/25 13:17:58;;;;;;;9.68;8.43;;;29.70;57.60;;;;;;5038258;28;20021;-85
2022/05/25 13:20:46;;;;;;;11.65;9.27;;;29.80;58.40;;;;;;5037418;28;20150;-80
2022/05/25 13:23:51;;;;;;;10.30;9.30;;;29.70;58.30;;;;;;5037709;28;20028;-80
2022/05/25 13:26:24;;;;;;;10.55;8.88;;;29.40;58.00;;;;;;5055638;28;20096;-79
2022/05/25 13:29:25;;;;;;;12.93;9.80;;;29.30;58.40;;;;;;5055360;28;20117;-83
2022/05/25 13:32:20;;;;;;;10.95;9.85;;;29.00;59.10;;;;;;4994274;28;20039;-83